createdAt,value
2022-12-05T00:01:46.325Z,43.40
2022-12-05T00:04:15.174Z,41.00
2022-12-05T00:06:44.838Z,41.77
2022-12-05T00:09:13.824Z,40.77
2022-12-05T00:11:45.178Z,41.50
2022-12-05T00:14:14.174Z,41.57
2022-12-05T00:16:44.268Z,40.73
2022-12-05T00:19:15.972Z,39.57
2022-12-05T00:21:45.301Z,39.53
2022-12-05T00:24:15.823Z,41.43
2022-12-05T00:26:44.551Z,41.10
2022-12-05T00:29:12.802Z,40.97
2022-12-05T00:31:41.652Z,42.00
2022-12-05T00:34:10.288Z,42.47
2022-12-05T00:36:38.279Z,42.63
2022-12-05T00:39:10.399Z,43.43
2022-12-05T00:41:38.249Z,41.37
2022-12-05T00:44:06.338Z,41.47
2022-12-05T00:46:36.144Z,41.70
2022-12-05T00:49:06.692Z,41.27
2022-12-05T00:51:40.122Z,43.00
2022-12-05T00:54:12.770Z,39.40
2022-12-05T00:56:41.245Z,42.20
2022-12-05T00:59:14.382Z,38.87
2022-12-05T01:01:45.803Z,38.90
2022-12-05T01:04:17.515Z,34.70
2022-12-05T01:06:46.441Z,41.73
2022-12-05T01:09:18.803Z,40.00
2022-12-05T01:11:47.673Z,31.43
2022-12-05T01:14:18.485Z,36.10
2022-12-05T01:16:49.004Z,39.83
2022-12-05T01:19:19.918Z,40.73
2022-12-05T01:21:48.354Z,38.47
2022-12-05T01:24:20.055Z,40.43
2022-12-05T01:26:48.651Z,37.67
2022-12-05T01:29:19.907Z,38.93
2022-12-05T01:31:48.053Z,41.53
2022-12-05T01:34:18.344Z,39.53
2022-12-05T01:36:47.210Z,40.33
2022-12-05T01:39:17.069Z,38.80
2022-12-05T01:41:48.065Z,39.00
2022-12-05T01:45:03.172Z,39.33
2022-12-05T01:47:36.922Z,41.90
2022-12-05T01:50:07.491Z,34.63
2022-12-05T01:52:36.038Z,38.13
2022-12-05T01:55:12.975Z,39.10
2022-12-05T01:57:41.964Z,39.07
2022-12-05T02:00:14.962Z,37.83
2022-12-05T02:02:52.791Z,41.03
2022-12-05T02:05:27.599Z,37.00
2022-12-05T02:07:57.961Z,37.43
2022-12-05T02:10:36.184Z,42.43
2022-12-05T02:13:26.692Z,42.63
2022-12-05T02:16:04.593Z,42.93
2022-12-05T02:18:57.450Z,43.23
2022-12-05T02:22:10.887Z,40.37
2022-12-05T02:25:05.618Z,38.83
2022-12-05T02:28:15.108Z,42.93
2022-12-05T02:30:54.428Z,40.43
2022-12-05T02:33:32.355Z,41.23
2022-12-05T02:36:09.447Z,43.70
2022-12-05T02:38:46.393Z,42.23
2022-12-05T02:41:24.695Z,46.47
2022-12-05T02:43:59.124Z,49.17
2022-12-05T02:46:32.512Z,48.13
2022-12-05T02:49:07.251Z,54.73
2022-12-05T02:51:43.287Z,68.47
2022-12-05T02:54:16.892Z,67.73
2022-12-05T02:56:49.480Z,83.37
2022-12-05T02:59:22.923Z,71.93
2022-12-05T03:01:53.264Z,88.47
2022-12-05T03:04:24.890Z,82.07
2022-12-05T03:06:58.304Z,70.00
2022-12-05T03:09:33.703Z,95.07
2022-12-05T03:12:12.914Z,75.97
2022-12-05T03:14:47.577Z,87.97
2022-12-05T03:17:23.216Z,86.30
2022-12-05T03:19:58.860Z,92.07
2022-12-05T03:25:02.522Z,98.13
2022-12-05T03:27:44.206Z,97.65
2022-12-05T03:30:17.671Z,92.50
2022-12-05T03:32:57.831Z,103.10
2022-12-05T03:35:36.529Z,102.37
2022-12-05T03:38:12.761Z,93.40
2022-12-05T03:40:47.584Z,93.57
2022-12-05T03:43:25.350Z,69.23
2022-12-05T03:46:02.883Z,94.43
2022-12-05T03:48:37.577Z,91.17
2022-12-05T03:51:11.622Z,89.40
2022-12-05T03:53:47.740Z,96.53
2022-12-05T03:56:23.542Z,88.77
2022-12-05T04:01:31.706Z,85.17
2022-12-05T04:04:11.346Z,92.30
2022-12-05T04:06:45.519Z,100.00
2022-12-05T04:09:22.543Z,95.20
2022-12-05T04:11:59.669Z,69.70
2022-12-05T04:14:35.273Z,84.60
2022-12-05T04:17:09.204Z,89.63
2022-12-05T04:20:05.334Z,98.63
2022-12-05T04:22:35.643Z,86.15
2022-12-05T04:25:28.717Z,87.77
2022-12-05T04:28:14.486Z,90.23
2022-12-05T04:30:53.523Z,88.53
2022-12-05T04:33:34.320Z,87.53
2022-12-05T04:36:12.127Z,99.03
2022-12-05T04:38:50.382Z,85.70
2022-12-05T04:41:25.474Z,80.73
2022-12-05T04:43:59.244Z,89.88
2022-12-05T04:46:27.580Z,85.07
2022-12-05T04:49:01.658Z,89.17
2022-12-05T04:51:36.746Z,82.63
2022-12-05T04:54:14.604Z,86.70
2022-12-05T04:56:49.821Z,82.87
2022-12-05T04:59:17.623Z,72.05
2022-12-05T05:01:51.455Z,89.50
2022-12-05T05:04:25.835Z,78.70
2022-12-05T05:06:55.115Z,82.87
2022-12-05T05:09:23.055Z,70.77
2022-12-05T05:11:51.490Z,75.67
2022-12-05T05:14:19.222Z,68.00
2022-12-05T05:16:47.453Z,80.00
2022-12-05T05:19:15.175Z,66.70
2022-12-05T05:21:43.616Z,93.37
2022-12-05T05:24:12.786Z,68.70
2022-12-05T05:26:44.181Z,71.77
2022-12-05T05:29:13.817Z,73.23
2022-12-05T05:31:42.211Z,72.67
2022-12-05T05:34:11.141Z,74.77
2022-12-05T05:36:39.364Z,90.87
2022-12-05T05:39:15.011Z,89.37
2022-12-05T05:41:43.470Z,78.93
2022-12-05T05:44:11.338Z,76.53
2022-12-05T05:46:39.726Z,90.90
2022-12-05T05:49:07.424Z,87.50
2022-12-05T05:51:35.556Z,76.00
2022-12-05T05:54:03.831Z,78.90
2022-12-05T05:56:32.934Z,90.07
2022-12-05T05:59:03.758Z,79.40
2022-12-05T06:01:32.212Z,66.13
2022-12-05T06:04:00.412Z,65.93
2022-12-05T06:06:28.383Z,68.77
2022-12-05T06:08:56.843Z,67.03
2022-12-05T06:11:27.841Z,66.10
2022-12-05T06:14:01.015Z,75.33
2022-12-05T06:16:31.370Z,76.20
2022-12-05T06:18:59.692Z,61.73
2022-12-05T06:21:27.897Z,66.23
2022-12-05T06:23:56.168Z,62.77
2022-12-05T06:26:24.029Z,66.70
2022-12-05T06:28:51.925Z,68.50
2022-12-05T06:31:24.673Z,56.40
2022-12-05T06:33:52.524Z,64.00
2022-12-05T06:36:22.782Z,64.80
2022-12-05T06:38:50.778Z,66.10
2022-12-05T06:41:20.924Z,52.27
2022-12-05T06:43:48.755Z,54.73
2022-12-05T06:46:16.930Z,60.70
2022-12-05T06:48:46.830Z,62.50
2022-12-05T06:51:16.686Z,47.67
2022-12-05T06:53:45.166Z,53.50
2022-12-05T06:56:16.415Z,58.67
2022-12-05T06:58:48.064Z,59.40
2022-12-05T07:01:37.428Z,69.60
2022-12-05T07:04:12.470Z,58.77
2022-12-05T07:06:46.114Z,52.93
2022-12-05T07:09:19.963Z,58.37
2022-12-05T07:11:49.095Z,53.63
2022-12-05T07:14:38.870Z,51.67
2022-12-05T07:17:05.668Z,58.33
2022-12-05T07:19:35.501Z,59.37
2022-12-05T07:22:03.722Z,71.87
2022-12-05T07:24:31.443Z,63.10
2022-12-05T07:26:59.225Z,72.30
2022-12-05T07:29:27.080Z,74.83
2022-12-05T07:31:55.191Z,65.57
2022-12-05T07:34:23.012Z,64.67
2022-12-05T07:36:52.208Z,66.83
2022-12-05T07:39:20.241Z,62.47
2022-12-05T07:41:48.064Z,74.83
2022-12-05T07:44:17.967Z,83.33
2022-12-05T07:46:45.791Z,57.97
2022-12-05T07:49:15.693Z,70.77
2022-12-05T07:51:43.813Z,81.67
2022-12-05T07:54:13.295Z,82.87
2022-12-05T07:56:47.431Z,69.03
2022-12-05T07:59:15.691Z,89.53
2022-12-05T08:01:43.598Z,85.30
2022-12-05T08:04:15.300Z,75.60
2022-12-05T08:06:43.627Z,73.53
2022-12-05T08:09:13.162Z,77.17
2022-12-05T08:11:41.120Z,76.13
2022-12-05T08:14:09.177Z,74.03
2022-12-05T08:16:37.187Z,57.10
2022-12-05T08:19:08.560Z,52.67
2022-12-05T08:21:36.577Z,58.10
2022-12-05T08:24:05.548Z,47.80
2022-12-05T08:26:36.728Z,48.17
2022-12-05T08:29:07.736Z,53.47
2022-12-05T08:31:41.784Z,62.10
2022-12-05T08:34:12.923Z,48.00
2022-12-05T08:36:41.259Z,56.53
2022-12-05T08:39:14.907Z,53.13
2022-12-05T08:41:46.964Z,64.67
2022-12-05T08:44:18.646Z,74.30
2022-12-05T08:46:49.707Z,51.73
2022-12-05T08:49:18.091Z,51.07
2022-12-05T08:51:46.382Z,56.23
2022-12-05T08:54:14.507Z,53.30
2022-12-05T08:56:43.685Z,50.37
2022-12-05T08:59:11.703Z,57.13
2022-12-05T09:01:40.500Z,62.60
2022-12-05T09:04:08.651Z,70.00
2022-12-05T09:06:36.806Z,55.80
2022-12-05T09:09:07.907Z,66.30
2022-12-05T09:11:41.366Z,72.77
2022-12-05T09:14:10.737Z,67.97
2022-12-05T09:16:39.736Z,70.37
2022-12-05T09:19:13.403Z,87.00
2022-12-05T09:21:42.320Z,85.60
2022-12-05T09:24:11.824Z,76.17
2022-12-05T09:26:40.842Z,79.57
2022-12-05T09:29:16.207Z,79.93
2022-12-05T09:34:15.090Z,65.20
2022-12-05T09:36:43.882Z,77.60
2022-12-05T09:39:11.747Z,67.10
2022-12-05T09:42:05.393Z,80.43
2022-12-05T09:44:45.798Z,72.13
2022-12-05T09:47:32.521Z,66.67
2022-12-05T09:50:14.102Z,65.27
2022-12-05T09:52:53.562Z,65.07
2022-12-05T09:55:21.997Z,67.57
2022-12-05T09:57:53.991Z,71.23
2022-12-05T10:00:24.446Z,56.10
2022-12-05T10:03:19.282Z,61.60
2022-12-05T10:06:00.504Z,58.17
2022-12-05T10:08:41.739Z,53.23
2022-12-05T10:11:20.572Z,51.53
2022-12-05T10:14:02.730Z,54.63
2022-12-05T10:16:39.023Z,41.13
2022-12-05T10:19:16.324Z,46.13
2022-12-05T10:21:56.736Z,44.57
2022-12-05T10:24:33.757Z,44.40
2022-12-05T10:27:07.785Z,39.63
2022-12-05T10:29:45.230Z,47.50
2022-12-05T10:32:22.015Z,46.67
2022-12-05T10:34:54.463Z,42.47
2022-12-05T10:37:24.109Z,42.47
2022-12-05T10:39:52.557Z,46.80
2022-12-05T10:42:27.124Z,50.93
2022-12-05T10:44:59.956Z,45.80
2022-12-05T10:47:29.585Z,46.50
2022-12-05T10:50:05.557Z,40.37
2022-12-05T10:52:33.823Z,44.00
2022-12-05T10:55:06.740Z,42.27
2022-12-05T10:57:34.707Z,41.53
2022-12-05T11:00:13.324Z,37.57
2022-12-05T11:02:47.626Z,46.50
2022-12-05T11:05:17.153Z,36.83
2022-12-05T11:07:49.404Z,38.27
2022-12-05T11:10:27.126Z,38.87
2022-12-05T11:12:57.799Z,35.33
2022-12-05T11:15:29.166Z,44.93
2022-12-05T11:18:19.063Z,41.70
2022-12-05T11:20:46.897Z,44.90
2022-12-05T11:23:26.291Z,40.70
2022-12-05T11:25:55.511Z,42.17
2022-12-05T11:28:36.082Z,45.43
2022-12-05T11:31:19.586Z,39.00
2022-12-05T11:34:10.184Z,39.17
2022-12-05T11:36:44.279Z,45.47
2022-12-05T11:39:14.114Z,46.87
2022-12-05T11:42:13.692Z,46.53
2022-12-05T11:45:12.420Z,50.03
2022-12-05T11:47:56.252Z,44.03
2022-12-05T11:50:41.161Z,50.93
2022-12-05T11:53:35.167Z,50.93
2022-12-05T11:56:17.989Z,57.17
2022-12-05T11:59:09.896Z,59.20
2022-12-05T12:01:57.531Z,53.57
2022-12-05T12:04:49.479Z,53.33
2022-12-05T12:07:36.161Z,52.70
2022-12-05T12:10:23.941Z,49.33
2022-12-05T12:13:12.673Z,52.07
2022-12-05T12:16:06.657Z,46.87
2022-12-05T12:19:06.237Z,48.40
2022-12-05T12:21:53.961Z,35.07
2022-12-05T12:24:43.422Z,38.33
2022-12-05T12:27:28.778Z,42.90
2022-12-05T12:30:09.636Z,38.85
2022-12-05T12:32:55.745Z,40.10
2022-12-05T12:35:30.415Z,48.78
2022-12-05T12:38:29.481Z,44.73
2022-12-05T12:41:14.038Z,51.60
2022-12-05T12:44:04.903Z,38.93
2022-12-05T12:46:50.617Z,41.63
2022-12-05T12:49:38.990Z,56.53
2022-12-05T12:52:15.978Z,52.87
2022-12-05T12:55:04.634Z,42.30
2022-12-05T12:58:04.421Z,44.30
2022-12-05T13:00:51.298Z,57.23
2022-12-05T13:03:26.827Z,39.73
2022-12-05T13:06:04.839Z,47.83
2022-12-05T13:08:41.760Z,48.47
2022-12-05T13:11:14.131Z,64.87
2022-12-05T13:13:50.049Z,56.13
2022-12-05T13:18:54.804Z,51.20
2022-12-05T13:21:24.273Z,52.73
2022-12-05T13:23:59.106Z,55.83
2022-12-05T13:26:27.049Z,59.33
2022-12-05T13:28:59.192Z,59.87
2022-12-05T13:31:40.263Z,53.00
2022-12-05T13:34:47.509Z,54.70
2022-12-05T13:40:46.092Z,46.30
2022-12-05T13:43:20.231Z,51.83
2022-12-05T13:46:06.052Z,53.57
2022-12-05T13:48:39.576Z,41.70
2022-12-05T13:51:21.091Z,53.17
2022-12-05T13:54:00.682Z,43.87
2022-12-05T13:56:49.014Z,44.57
2022-12-05T14:00:01.661Z,44.30
2022-12-05T14:02:55.771Z,37.93
2022-12-05T14:05:45.283Z,31.03
2022-12-05T14:08:56.116Z,38.77
2022-12-05T14:11:24.615Z,37.63
2022-12-05T14:13:54.153Z,38.87
2022-12-05T14:16:45.113Z,41.73
2022-12-05T14:19:53.656Z,43.40
2022-12-05T14:22:48.025Z,42.80
2022-12-05T14:25:44.394Z,38.80
2022-12-05T14:28:40.221Z,38.83
2022-12-05T14:31:31.564Z,42.47
2022-12-05T14:34:17.843Z,38.33
2022-12-05T14:36:56.100Z,36.53
2022-12-05T14:39:35.896Z,36.30
2022-12-05T14:42:22.894Z,41.87
2022-12-05T14:44:56.104Z,50.03
2022-12-05T14:47:28.871Z,38.63
2022-12-05T14:50:02.543Z,42.73
2022-12-05T14:52:31.995Z,37.20
2022-12-05T14:55:11.060Z,42.17
2022-12-05T14:57:48.958Z,43.83
2022-12-05T15:00:23.025Z,46.93
2022-12-05T15:02:55.562Z,44.63
2022-12-05T15:05:30.332Z,43.93
2022-12-05T15:08:01.816Z,40.97
2022-12-05T15:10:34.825Z,49.80
2022-12-05T15:13:13.283Z,39.03
2022-12-05T15:15:46.541Z,37.93
2022-12-05T15:18:24.773Z,51.57
2022-12-05T15:20:59.139Z,41.20
2022-12-05T15:23:46.005Z,43.10
2022-12-05T15:29:15.172Z,51.20
2022-12-05T15:31:47.200Z,53.77
2022-12-05T15:34:23.802Z,41.87
2022-12-05T15:37:00.046Z,46.53
2022-12-05T15:39:28.748Z,49.90
2022-12-05T15:41:57.777Z,52.10
2022-12-05T15:44:35.961Z,47.60
2022-12-05T15:47:05.281Z,46.93
2022-12-05T15:49:33.099Z,46.20
2022-12-05T15:52:13.681Z,48.63
2022-12-05T15:54:43.648Z,53.97
2022-12-05T15:57:21.816Z,65.70
2022-12-05T16:00:01.865Z,60.97
2022-12-05T16:02:42.764Z,84.07
2022-12-05T16:05:24.994Z,80.00
2022-12-05T16:07:54.268Z,91.13
2022-12-05T16:10:29.257Z,81.60
2022-12-05T16:13:06.299Z,147.02
2022-12-05T16:15:35.703Z,63.87
2022-12-05T16:18:06.005Z,69.13
2022-12-05T16:20:36.875Z,70.00
2022-12-05T16:23:22.604Z,80.77
2022-12-05T16:25:52.037Z,190.07
2022-12-05T16:28:21.783Z,158.57
2022-12-05T16:30:57.955Z,167.93
2022-12-05T16:33:28.302Z,121.93
2022-12-05T16:35:56.641Z,117.80
2022-12-05T16:38:29.616Z,25.40
2022-12-05T16:41:00.760Z,27.83
2022-12-05T16:43:43.947Z,27.57
2022-12-05T16:46:43.637Z,25.70
2022-12-05T16:49:33.089Z,21.43
2022-12-05T16:52:12.269Z,25.23
2022-12-05T16:54:40.494Z,25.30
2022-12-05T16:57:14.332Z,24.33
2022-12-05T16:59:43.929Z,31.67
2022-12-05T17:02:17.199Z,39.53
2022-12-05T17:04:46.740Z,31.37
2022-12-05T17:07:14.596Z,41.67
2022-12-05T17:09:42.384Z,44.50
2022-12-05T17:12:22.302Z,31.27
2022-12-05T17:14:50.664Z,34.00
2022-12-05T17:17:19.715Z,34.37
2022-12-05T17:19:47.585Z,36.27
2022-12-05T17:22:15.935Z,43.33
2022-12-05T17:24:43.681Z,43.77
2022-12-05T17:27:12.850Z,34.70
2022-12-05T17:29:40.877Z,50.10
2022-12-05T17:32:10.898Z,54.73
2022-12-05T17:34:40.010Z,33.87
2022-12-05T17:37:07.797Z,58.87
2022-12-05T17:39:35.573Z,51.13
2022-12-05T17:42:04.930Z,36.00
2022-12-05T17:44:32.926Z,33.90
2022-12-05T17:47:06.071Z,36.57
2022-12-05T17:49:35.887Z,34.78
2022-12-05T17:52:22.105Z,35.43
2022-12-05T17:54:50.788Z,32.60
2022-12-05T17:57:18.679Z,40.13
2022-12-05T17:59:46.538Z,33.63
2022-12-05T18:02:18.891Z,30.47
2022-12-05T18:04:47.025Z,34.47
2022-12-05T18:07:16.657Z,33.73
2022-12-05T18:09:44.488Z,31.60
2022-12-05T18:12:12.182Z,31.13
2022-12-05T18:14:41.542Z,27.57
2022-12-05T18:17:09.501Z,32.10
2022-12-05T18:19:37.236Z,36.47
2022-12-05T18:22:05.546Z,36.20
2022-12-05T18:24:34.719Z,27.33
2022-12-05T18:27:02.417Z,24.40
2022-12-05T18:29:30.331Z,44.27
2022-12-05T18:31:58.200Z,36.07
2022-12-05T18:34:26.037Z,22.73
2022-12-05T18:36:54.749Z,23.60
2022-12-05T18:39:22.659Z,23.87
2022-12-05T18:41:51.788Z,17.00
2022-12-05T18:44:19.623Z,20.20
2022-12-05T18:46:47.317Z,18.60
2022-12-05T18:49:15.465Z,22.10
2022-12-05T18:51:45.382Z,26.53
2022-12-05T18:54:13.733Z,30.27
2022-12-05T18:56:42.993Z,26.93
2022-12-05T18:59:16.795Z,30.60
2022-12-05T19:01:45.817Z,22.70
2022-12-05T19:04:16.843Z,21.37
2022-12-05T19:06:49.458Z,19.10
2022-12-05T19:09:20.843Z,20.53
2022-12-05T19:11:52.377Z,18.20
2022-12-05T19:14:21.895Z,19.90
2022-12-05T19:16:58.021Z,24.00
2022-12-05T19:19:29.118Z,17.07
2022-12-05T19:21:58.720Z,16.70
2022-12-05T19:24:26.884Z,16.90
2022-12-05T19:26:54.714Z,18.10
2022-12-05T19:29:23.888Z,31.27
2022-12-05T19:31:51.641Z,32.57
2022-12-05T19:34:19.504Z,50.90
2022-12-05T19:36:49.874Z,150.97
2022-12-05T19:39:20.156Z,77.90
2022-12-05T19:41:49.238Z,103.27
2022-12-05T19:44:18.095Z,28.13
2022-12-05T19:46:49.203Z,59.67
2022-12-05T19:49:17.553Z,71.03
2022-12-05T19:51:46.393Z,68.40
2022-12-05T19:54:17.682Z,65.00
2022-12-05T19:56:45.653Z,114.77
2022-12-05T19:59:16.619Z,131.80
2022-12-05T20:01:44.791Z,126.00
2022-12-05T20:04:16.467Z,60.60
2022-12-05T20:06:47.735Z,75.40
2022-12-05T20:09:19.090Z,24.50
2022-12-05T20:11:55.066Z,21.33
2022-12-05T20:14:25.374Z,28.80
2022-12-05T20:16:54.171Z,41.10
2022-12-05T20:19:24.054Z,42.90
2022-12-05T20:21:52.165Z,45.83
2022-12-05T20:24:19.854Z,36.37
2022-12-05T20:26:47.677Z,67.17
2022-12-05T20:29:15.473Z,111.30
2022-12-05T20:31:43.825Z,128.00
2022-12-05T20:34:15.060Z,87.60
2022-12-05T20:36:44.270Z,104.57
2022-12-05T20:39:15.433Z,45.03
2022-12-05T20:41:44.045Z,29.70
2022-12-05T20:44:17.055Z,37.27
2022-12-05T20:46:45.143Z,37.37
2022-12-05T20:49:13.765Z,55.90
2022-12-05T20:51:45.798Z,88.37
2022-12-05T20:54:16.552Z,66.47
2022-12-05T20:56:45.378Z,62.47
2022-12-05T20:59:14.444Z,65.83
2022-12-05T21:01:42.504Z,83.10
2022-12-05T21:04:13.407Z,57.57
2022-12-05T21:06:45.776Z,53.83
2022-12-05T21:09:26.474Z,124.03
2022-12-05T21:11:55.093Z,77.90
2022-12-05T21:14:23.721Z,75.17
2022-12-05T21:16:53.151Z,41.93
2022-12-05T21:19:22.007Z,32.90
2022-12-05T21:21:53.707Z,26.03
2022-12-05T21:24:21.642Z,31.27
2022-12-05T21:26:50.478Z,33.67
2022-12-05T21:29:18.504Z,35.10
2022-12-05T21:31:46.353Z,29.90
2022-12-05T21:34:18.001Z,28.90
2022-12-05T21:36:47.304Z,30.37
2022-12-05T21:39:16.840Z,31.63
2022-12-05T21:41:44.591Z,30.00
2022-12-05T21:44:14.751Z,33.67
2022-12-05T21:46:42.636Z,21.97
2022-12-05T21:49:11.283Z,18.57
2022-12-05T21:51:40.154Z,20.73
2022-12-05T21:54:08.113Z,21.57
2022-12-05T21:56:38.805Z,21.50
2022-12-05T21:59:06.528Z,18.67
2022-12-05T22:01:34.468Z,22.93
2022-12-05T22:04:02.395Z,10.43
2022-12-05T22:06:33.955Z,16.80
2022-12-05T22:09:02.212Z,18.30
2022-12-05T22:11:30.637Z,16.57
2022-12-05T22:13:59.723Z,17.97
2022-12-05T22:16:33.073Z,18.80
2022-12-05T22:19:02.192Z,17.23
2022-12-05T22:21:33.984Z,20.53
2022-12-05T22:24:02.066Z,21.23
2022-12-05T22:26:29.878Z,14.87
2022-12-05T22:28:59.018Z,17.90
2022-12-05T22:31:26.994Z,15.63
2022-12-05T22:33:54.769Z,6.20
2022-12-05T22:36:24.134Z,5.83
2022-12-05T22:38:51.952Z,10.87
2022-12-05T22:41:22.513Z,17.63
2022-12-05T22:43:56.508Z,23.73
2022-12-05T22:46:28.398Z,23.43
2022-12-05T22:48:56.512Z,24.97
2022-12-05T22:51:24.881Z,22.97
2022-12-05T22:53:53.788Z,21.37
2022-12-05T22:56:23.749Z,25.87
2022-12-05T22:58:55.055Z,19.57
2022-12-05T23:01:27.911Z,22.60
2022-12-05T23:03:58.240Z,17.37
2022-12-05T23:06:28.373Z,23.57
2022-12-05T23:08:57.355Z,20.00
2022-12-05T23:11:26.809Z,20.17
2022-12-05T23:14:02.374Z,19.90
2022-12-05T23:16:33.669Z,21.67
2022-12-05T23:19:05.409Z,26.50
2022-12-05T23:21:37.160Z,23.03
2022-12-05T23:24:08.407Z,22.93
2022-12-05T23:26:39.530Z,20.50
2022-12-05T23:29:08.160Z,23.03
2022-12-05T23:31:37.372Z,20.77
2022-12-05T23:34:05.707Z,22.90
2022-12-05T23:36:34.810Z,15.10
2022-12-05T23:39:03.580Z,22.47
2022-12-05T23:41:31.818Z,16.73
2022-12-05T23:43:59.642Z,19.90
2022-12-05T23:46:28.686Z,22.53
2022-12-05T23:48:58.401Z,23.70
2022-12-05T23:51:29.289Z,22.00
2022-12-05T23:54:00.454Z,24.37
2022-12-05T23:56:31.747Z,29.80
2022-12-05T23:59:00.320Z,48.47
